Time;durP1;ratioP1;P1;durP2;ratioP2;P2;SDS_P1;SDS_P2;PMS_P1;PMS_P2;Temp;Humidity;BMP_temperature;BMP_pressure;BME280_temperature;BME280_humidity;BME280_pressure;Samples;Min_cycle;Max_cycle;Signal;HPM_P1;HPM_P2
2022/04/21 00:02:05;;;;;;;10.33;6.07;;;;;;;9.31;61.53;101279.69;5032338;28;20048;-80
2022/04/21 00:04:37;;;;;;;8.50;5.80;;;;;;;9.29;61.47;101272.59;5032179;28;20471;-79
2022/04/21 00:07:03;;;;;;;7.50;5.60;;;;;;;9.26;61.51;101273.00;5033088;28;20048;-79
2022/04/21 00:09:28;;;;;;;9.63;6.13;;;;;;;9.25;61.91;101276.72;5026939;28;20140;-79
2022/04/21 00:11:53;;;;;;;10.70;5.80;;;;;;;9.21;61.92;101264.59;5027582;28;20042;-79
2022/04/21 00:14:18;;;;;;;10.00;6.10;;;;;;;9.15;62.25;101259.97;5026634;28;20030;-79
2022/04/21 00:16:44;;;;;;;9.03;6.33;;;;;;;9.17;61.69;101262.50;5026976;28;20057;-79
2022/04/21 00:19:09;;;;;;;8.73;6.17;;;;;;;9.10;62.87;101262.44;5027879;28;20091;-79
2022/04/21 00:24:19;;;;;;;8.68;5.82;;;;;;;9.06;62.69;101267.38;5026121;28;20059;-79
2022/04/21 00:26:44;;;;;;;9.70;6.17;;;;;;;9.01;63.05;101261.69;5027070;28;20048;-80
2022/04/21 00:29:09;;;;;;;10.07;6.00;;;;;;;8.99;62.80;101266.47;5027391;28;20040;-79
2022/04/21 00:31:35;;;;;;;10.37;6.20;;;;;;;8.99;62.89;101265.59;5026990;28;20482;-79
2022/04/21 00:34:00;;;;;;;12.37;6.20;;;;;;;8.97;62.76;101264.97;5032843;28;20502;-78
2022/04/21 00:36:26;;;;;;;11.13;6.10;;;;;;;8.93;63.24;101262.66;5027111;28;20037;-78
2022/04/21 00:38:51;;;;;;;10.00;6.20;;;;;;;8.91;63.48;101272.00;5025924;28;20041;-79
2022/04/21 00:41:16;;;;;;;11.67;6.40;;;;;;;8.85;63.43;101261.94;5027364;28;20037;-78
2022/04/21 00:43:41;;;;;;;9.93;6.30;;;;;;;8.79;63.85;101261.66;5024529;28;20033;-78
2022/04/21 00:46:15;;;;;;;11.10;6.30;;;;;;;8.74;63.83;101268.66;5025949;28;21991;-78
2022/04/21 00:48:40;;;;;;;12.40;6.80;;;;;;;8.60;64.83;101265.78;5026726;28;20026;-78
2022/04/21 00:51:06;;;;;;;8.67;6.47;;;;;;;8.59;64.57;101266.84;5026413;28;20449;-78
2022/04/21 00:53:31;;;;;;;12.37;6.60;;;;;;;8.52;65.25;101263.19;5026925;28;20048;-79
2022/04/21 00:55:57;;;;;;;10.93;6.90;;;;;;;8.45;65.45;101264.97;5058233;28;20056;-78
2022/04/21 00:58:23;;;;;;;13.97;6.87;;;;;;;8.40;66.92;101254.69;5025941;28;20116;-79
2022/04/21 01:00:48;;;;;;;10.73;6.80;;;;;;;8.32;66.81;101264.75;5025720;28;20049;-78
2022/04/21 01:03:14;;;;;;;10.80;6.93;;;;;;;8.32;65.98;101262.06;5025738;28;20044;-79
2022/04/21 01:05:40;;;;;;;11.03;7.17;;;;;;;8.27;66.38;101270.72;5023827;28;20060;-79
2022/04/21 01:08:08;;;;;;;13.00;7.10;;;;;;;8.10;67.46;101265.50;5025999;28;20035;-79
2022/04/21 01:10:36;;;;;;;12.17;7.33;;;;;;;8.09;67.37;101260.28;5025720;28;20488;-79
2022/04/21 01:13:05;;;;;;;14.33;7.10;;;;;;;8.06;68.04;101263.34;5025589;28;20087;-78
2022/04/21 01:15:30;;;;;;;11.70;6.93;;;;;;;8.05;67.11;101265.22;5025667;28;20029;-78
2022/04/21 01:17:55;;;;;;;11.53;7.33;;;;;;;7.98;68.75;101268.84;5025279;28;20158;-78
2022/04/21 01:20:22;;;;;;;10.83;7.50;;;;;;;7.76;68.64;101261.47;5040486;28;20193;-78
2022/04/21 01:22:49;;;;;;;13.40;8.10;;;;;;;7.76;69.72;101255.22;5026056;28;20045;-78
2022/04/21 01:25:14;;;;;;;10.40;7.57;;;;;;;7.76;68.88;101257.91;5024412;28;20096;-78
2022/04/21 01:27:41;;;;;;;11.20;7.80;;;;;;;7.63;69.86;101246.91;5025301;28;20048;-78
2022/04/21 01:30:08;;;;;;;12.40;7.60;;;;;;;7.57;70.22;101246.59;5024841;28;20157;-79
2022/04/21 01:32:36;;;;;;;14.43;7.83;;;;;;;7.44;70.53;101249.09;5025132;28;20042;-79
2022/04/21 01:35:06;;;;;;;10.47;7.50;;;;;;;7.49;71.16;101254.78;5024409;28;20083;-78
2022/04/21 01:43:01;;;;;;;11.23;7.65;;;;;;;7.20;73.25;101239.34;5051515;28;20567;-79
2022/04/21 01:45:26;;;;;;;11.27;7.93;;;;;;;7.10;73.75;101244.97;5025463;28;20041;-79
2022/04/21 01:47:58;;;;;;;12.07;7.70;;;;;;;7.07;74.17;101246.19;5025157;28;20389;-78
2022/04/21 01:50:25;;;;;;;12.77;8.10;;;;;;;6.93;73.85;101242.41;5024654;28;20045;-78
2022/04/21 01:52:50;;;;;;;11.00;7.77;;;;;;;6.74;74.40;101237.44;5024853;28;20037;-78
2022/04/21 01:55:16;;;;;;;14.10;8.30;;;;;;;6.76;74.13;101240.81;5024447;28;20033;-78
2022/04/21 01:57:41;;;;;;;12.30;8.17;;;;;;;6.74;74.48;101243.66;5025041;28;20029;-78
2022/04/21 02:00:07;;;;;;;14.23;9.00;;;;;;;6.74;74.40;101240.97;5024796;28;20068;-78
2022/04/21 02:02:33;;;;;;;12.17;8.60;;;;;;;6.63;75.43;101238.69;5024564;28;20037;-78
2022/04/21 02:05:00;;;;;;;13.87;8.47;;;;;;;6.51;75.20;101245.47;5024592;28;20045;-78
2022/04/21 02:07:27;;;;;;;13.80;8.40;;;;;;;6.51;74.48;101238.22;5026794;28;20048;-78
2022/04/21 02:09:53;;;;;;;12.57;8.17;;;;;;;6.56;74.06;101241.22;5024448;28;20045;-78
2022/04/21 02:12:21;;;;;;;13.20;8.00;;;;;;;6.67;73.17;101245.38;5024898;28;20041;-78
2022/04/21 02:14:47;;;;;;;12.33;7.93;;;;;;;6.74;73.23;101245.53;5024858;28;20044;-79
2022/04/21 02:17:12;;;;;;;14.23;8.00;;;;;;;6.80;72.86;101236.75;5023451;28;20048;-78
2022/04/21 02:19:37;;;;;;;13.37;7.80;;;;;;;6.86;73.01;101240.59;5025034;28;20469;-78
2022/04/21 02:22:03;;;;;;;10.87;8.03;;;;;;;6.93;71.96;101234.31;5024268;28;20481;-78
2022/04/21 02:24:43;;;;;;;12.13;7.83;;;;;;;6.99;71.63;101242.69;5055223;28;20042;-78
2022/04/21 02:27:09;;;;;;;13.20;8.17;;;;;;;7.01;71.51;101246.06;5024345;28;20033;-78
2022/04/21 02:29:34;;;;;;;10.77;7.57;;;;;;;6.97;71.80;101240.16;5024373;28;20511;-77
2022/04/21 02:32:01;;;;;;;12.47;7.83;;;;;;;6.99;71.83;101237.28;5023799;28;20047;-78
2022/04/21 02:34:28;;;;;;;12.03;8.07;;;;;;;6.93;71.21;101245.09;5024163;28;20041;-79
2022/04/21 02:36:54;;;;;;;11.87;7.63;;;;;;;6.95;71.69;101246.75;5024462;28;20507;-79
2022/04/21 02:39:19;;;;;;;14.60;7.90;;;;;;;6.95;70.84;101238.66;5024318;28;20040;-79
2022/04/21 02:41:45;;;;;;;11.77;7.87;;;;;;;6.98;70.86;101241.03;5024047;28;20045;-79
2022/04/21 02:44:10;;;;;;;11.93;7.20;;;;;;;6.99;70.75;101235.44;5023863;28;20491;-78
2022/04/21 02:46:36;;;;;;;15.60;8.60;;;;;;;6.97;70.50;101240.16;5023730;28;20399;-79
2022/04/21 02:49:03;;;;;;;11.73;7.73;;;;;;;6.95;70.86;101236.81;5023726;28;20060;-78
2022/04/21 02:51:32;;;;;;;14.53;8.13;;;;;;;6.96;70.32;101240.34;5022661;28;20477;-78
2022/04/21 02:59:27;;;;;;;12.05;7.82;;;;;;;6.83;70.71;101243.66;5023005;28;20072;-78
2022/04/21 03:01:53;;;;;;;11.20;8.40;;;;;;;6.78;71.29;101240.63;5023475;28;20119;-79
2022/04/21 03:04:18;;;;;;;11.63;8.10;;;;;;;6.80;70.57;101246.66;5055526;28;20052;-78
2022/04/21 03:06:43;;;;;;;12.23;8.20;;;;;;;6.75;70.56;101239.13;5025907;28;20065;-79
2022/04/21 03:09:09;;;;;;;12.70;7.70;;;;;;;6.72;70.85;101244.88;5027916;28;20128;-78
2022/04/21 03:11:34;;;;;;;12.40;8.13;;;;;;;6.71;70.93;101246.72;5043961;28;20177;-79
2022/04/21 03:14:00;;;;;;;11.17;7.50;;;;;;;6.71;70.62;101245.88;5027428;28;20128;-79
2022/04/21 03:16:25;;;;;;;13.70;8.00;;;;;;;6.72;70.69;101244.88;5027522;28;20480;-79
2022/04/21 03:18:50;;;;;;;14.10;8.43;;;;;;;6.71;70.93;101235.13;5027629;28;20159;-79
2022/04/21 03:24:19;;;;;;;12.77;7.80;;;;;;;6.68;70.98;101230.09;5021324;28;20052;-78
2022/04/21 03:26:52;;;;;;;14.27;8.63;;;;;;;6.68;70.55;101232.78;5025960;28;20440;-79
2022/04/21 03:29:18;;;;;;;12.80;8.27;;;;;;;6.65;70.40;101231.28;5027087;28;21421;-79
2022/04/21 03:31:43;;;;;;;14.03;7.90;;;;;;;6.62;70.72;101228.09;5027495;28;20028;-78
2022/04/21 03:34:13;;;;;;;14.30;7.97;;;;;;;6.61;70.89;101235.34;5027267;28;20052;-79
2022/04/21 03:36:43;;;;;;;14.70;8.50;;;;;;;6.58;70.72;101236.53;5027059;28;20115;-78
2022/04/21 03:39:09;;;;;;;14.10;8.10;;;;;;;6.57;70.73;101239.41;5026585;28;20029;-79
2022/04/21 03:41:35;;;;;;;15.03;7.83;;;;;;;6.54;70.50;101234.34;5027061;28;20630;-79
2022/04/21 03:44:00;;;;;;;14.37;8.20;;;;;;;6.56;70.35;101235.84;5026820;28;20045;-79
2022/04/21 03:46:25;;;;;;;15.03;8.40;;;;;;;6.55;70.63;101244.09;5027042;28;20042;-79
2022/04/21 03:48:51;;;;;;;12.93;8.20;;;;;;;6.48;71.09;101243.97;5026620;28;20393;-79
2022/04/21 03:51:19;;;;;;;12.67;8.37;;;;;;;6.46;71.34;101243.31;5026633;28;20069;-79
2022/04/21 03:53:45;;;;;;;14.70;8.37;;;;;;;6.43;71.37;101246.34;5059007;28;20126;-78
2022/04/21 03:56:10;;;;;;;13.57;8.00;;;;;;;6.34;71.24;101234.78;5058635;28;20041;-78
2022/04/21 03:58:35;;;;;;;11.63;8.17;;;;;;;6.36;70.95;101248.06;5026746;28;20157;-78
2022/04/21 04:01:01;;;;;;;14.33;8.07;;;;;;;6.34;70.73;101255.47;5058462;28;20501;-78
2022/04/21 04:03:26;;;;;;;13.67;8.40;;;;;;;6.29;71.13;101244.41;5026120;28;20056;-79
2022/04/21 04:05:51;;;;;;;13.30;8.17;;;;;;;6.27;71.27;101249.94;5025797;28;20547;-79
2022/04/21 04:11:01;;;;;;;12.37;8.43;;;;;;;6.18;72.19;101241.03;5025798;28;20047;-79
2022/04/21 04:13:26;;;;;;;13.90;8.60;;;;;;;6.17;73.73;101249.31;5058509;28;20041;-79
2022/04/21 04:15:53;;;;;;;12.70;8.60;;;;;;;6.13;73.39;101247.97;5026495;28;20033;-79
2022/04/21 04:18:19;;;;;;;11.67;8.40;;;;;;;6.10;73.57;101256.38;5033031;28;20044;-79
2022/04/21 04:20:48;;;;;;;16.07;9.03;;;;;;;6.07;73.30;101254.88;5028376;28;20057;-78
2022/04/21 04:23:18;;;;;;;14.63;8.70;;;;;;;6.02;73.44;101254.53;5024532;28;20045;-79
2022/04/21 04:25:43;;;;;;;14.90;8.40;;;;;;;5.98;72.68;101250.53;5056753;28;20075;-79
2022/04/21 04:28:09;;;;;;;14.87;8.30;;;;;;;5.96;72.76;101252.53;5041387;28;20447;-78
2022/04/21 04:30:37;;;;;;;12.37;7.57;;;;;;;5.90;73.23;101249.50;5026262;28;20050;-79
2022/04/21 04:33:03;;;;;;;14.63;8.77;;;;;;;5.85;74.12;101246.47;5028312;28;20049;-79
2022/04/21 04:35:29;;;;;;;12.03;8.43;;;;;;;5.81;73.95;101242.47;5026001;28;20041;-79
2022/04/21 04:37:55;;;;;;;15.37;9.10;;;;;;;5.80;74.75;101243.47;5026129;28;20128;-79
2022/04/21 04:40:20;;;;;;;13.00;9.07;;;;;;;5.74;75.24;101247.69;5026114;28;20409;-79
2022/04/21 04:42:46;;;;;;;13.97;8.90;;;;;;;5.76;74.07;101247.50;5040834;28;20455;-79
2022/04/21 04:47:56;;;;;;;14.60;8.85;;;;;;;5.79;74.03;101241.78;5031955;28;20423;-79
2022/04/21 04:50:21;;;;;;;15.07;8.70;;;;;;;5.78;74.37;101245.50;5057572;28;20041;-79
2022/04/21 04:52:47;;;;;;;15.63;9.20;;;;;;;5.80;74.02;101248.00;5025873;28;20045;-79
2022/04/21 04:55:13;;;;;;;16.17;9.37;;;;;;;5.80;74.31;101248.00;5057197;28;20037;-79
2022/04/21 04:57:39;;;;;;;16.80;9.17;;;;;;;5.74;75.09;101244.16;5026334;28;20108;-79
2022/04/21 05:00:07;;;;;;;17.27;9.17;;;;;;;5.76;75.88;101252.88;5025399;28;20040;-80
2022/04/21 05:02:32;;;;;;;14.73;9.40;;;;;;;5.73;75.82;101253.22;5023596;28;20041;-80
2022/04/21 05:04:58;;;;;;;14.77;8.87;;;;;;;5.79;75.46;101255.22;5025000;28;20043;-80
2022/04/21 05:07:24;;;;;;;13.50;9.30;;;;;;;5.81;76.36;101253.22;5025432;28;20042;-80
2022/04/21 05:09:49;;;;;;;19.27;9.53;;;;;;;5.80;75.43;101256.91;5025775;28;20083;-79
2022/04/21 05:12:14;;;;;;;34.23;11.20;;;;;;;5.82;75.74;101252.22;5025359;28;20471;-80
2022/04/21 05:14:40;;;;;;;52.30;12.83;;;;;;;5.73;75.80;101253.22;5025120;28;20049;-79
2022/04/21 05:17:05;;;;;;;51.83;13.37;;;;;;;5.76;76.93;101258.25;5025512;28;20045;-80
2022/04/21 05:19:31;;;;;;;44.63;13.20;;;;;;;5.79;76.63;101252.53;5026129;28;20095;-80
2022/04/21 05:22:04;;;;;;;34.40;11.67;;;;;;;5.82;78.20;101254.91;5024634;28;20488;-79
2022/04/21 05:24:33;;;;;;;19.37;10.20;;;;;;;5.87;77.59;101249.00;5025840;28;20064;-79
2022/04/21 05:26:59;;;;;;;18.87;9.93;;;;;;;5.90;76.41;101237.88;5032008;28;20033;-79
2022/04/21 05:32:10;;;;;;;;;;;;;;;6.14;73.49;101252.34;5024297;28;21899;-78
2022/04/21 05:34:36;;;;;;;18.80;10.07;;;;;;;6.24;73.55;101245.75;5025034;28;20531;-79
2022/04/21 05:37:02;;;;;;;15.03;10.17;;;;;;;6.36;73.07;101248.06;5024144;28;20043;-79
2022/04/21 05:39:29;;;;;;;16.77;9.87;;;;;;;6.47;73.06;101249.53;5024753;28;20033;-79
2022/04/21 05:41:57;;;;;;;15.30;9.67;;;;;;;6.83;72.45;101262.50;5026686;28;20114;-78
2022/04/21 05:44:24;;;;;;;16.60;9.70;;;;;;;6.99;71.54;101245.38;5025005;28;20037;-79
2022/04/21 05:47:12;;;;;;;17.57;9.73;;;;;;;7.62;70.08;101253.34;5039051;28;20465;-78
2022/04/21 05:49:37;;;;;;;15.13;9.53;;;;;;;8.21;68.37;101253.38;5024192;28;20041;-79
2022/04/21 05:52:07;;;;;;;15.63;9.27;;;;;;;8.86;66.29;101248.22;5025424;28;20377;-79
2022/04/21 05:54:32;;;;;;;13.60;8.70;;;;;;;9.57;63.98;101252.03;5024399;28;20164;-78
2022/04/21 05:56:59;;;;;;;13.27;8.37;;;;;;;9.93;61.86;101254.59;5023932;28;20034;-78
2022/04/21 05:59:24;;;;;;;14.27;8.50;;;;;;;10.30;62.10;101252.53;5025575;28;20120;-78
2022/04/21 06:01:49;;;;;;;12.20;8.63;;;;;;;10.40;61.35;101249.53;5024914;28;20030;-78
2022/04/21 06:04:15;;;;;;;14.27;8.60;;;;;;;10.63;61.00;101251.91;5031321;28;20067;-78
2022/04/21 06:06:40;;;;;;;14.73;8.70;;;;;;;10.91;58.44;101250.13;5057113;28;20124;-78
2022/04/21 06:09:05;;;;;;;15.10;8.07;;;;;;;10.85;58.05;101248.22;5040065;28;20395;-79
2022/04/21 06:11:33;;;;;;;16.97;8.50;;;;;;;11.20;57.45;101251.63;5023615;28;20045;-78
2022/04/21 06:13:58;;;;;;;11.70;8.00;;;;;;;11.68;58.04;101242.47;5024323;28;20028;-78
2022/04/21 06:16:23;;;;;;;14.00;8.37;;;;;;;12.01;55.73;101240.81;5024141;28;20064;-79
2022/04/21 06:18:50;;;;;;;11.53;8.57;;;;;;;12.18;54.52;101249.34;5056175;28;20819;-78
2022/04/21 06:21:15;;;;;;;13.20;8.37;;;;;;;12.07;54.59;101250.84;5039413;28;21753;-78
2022/04/21 06:23:40;;;;;;;11.83;8.17;;;;;;;12.02;55.74;101251.47;5024261;28;20160;-78
2022/04/21 06:26:06;;;;;;;12.10;8.23;;;;;;;11.82;56.22;101248.75;5056082;28;20593;-78
2022/04/21 06:28:34;;;;;;;12.80;7.97;;;;;;;11.61;56.04;101245.22;5024028;28;20146;-78
2022/04/21 06:30:59;;;;;;;11.67;8.30;;;;;;;11.49;56.86;101245.00;5024009;28;20299;-78
2022/04/21 06:33:25;;;;;;;12.77;7.93;;;;;;;11.37;57.16;101249.38;5023632;28;20045;-78
2022/04/21 06:35:50;;;;;;;13.10;7.07;;;;;;;11.14;55.39;101241.63;5024365;28;20047;-79
2022/04/21 06:38:15;;;;;;;11.43;7.30;;;;;;;11.16;58.03;101234.09;5024412;28;21453;-79
2022/04/21 06:40:41;;;;;;;11.07;7.03;;;;;;;11.11;56.39;101231.16;5023086;28;20048;-78
2022/04/21 06:48:40;;;;;;;11.20;7.10;;;;;;;11.09;56.32;101225.13;5023942;28;20138;-79
2022/04/21 06:51:05;;;;;;;12.70;6.87;;;;;;;11.22;56.84;101222.44;5022302;28;20742;-79
2022/04/21 06:53:31;;;;;;;12.90;7.67;;;;;;;11.42;58.27;101221.63;5024271;28;20738;-79
2022/04/21 06:55:57;;;;;;;12.17;7.00;;;;;;;11.53;55.53;101220.16;5023541;28;20215;-79
2022/04/21 06:58:23;;;;;;;13.33;7.13;;;;;;;11.69;56.49;101216.19;5023778;28;20038;-79
2022/04/21 07:00:48;;;;;;;11.70;7.10;;;;;;;11.74;56.52;101224.53;5023950;28;20488;-80
2022/04/21 07:03:14;;;;;;;11.57;7.17;;;;;;;11.72;56.38;101230.19;5023698;28;20047;-78
2022/04/21 07:05:39;;;;;;;13.07;7.57;;;;;;;11.70;54.26;101217.88;5024131;28;20052;-79
2022/04/21 07:08:05;;;;;;;12.63;6.87;;;;;;;11.65;54.65;101224.75;5023630;28;20045;-79
2022/04/21 07:10:30;;;;;;;10.40;6.80;;;;;;;11.49;53.82;101219.72;5024064;28;20476;-79
2022/04/21 07:12:55;;;;;;;13.73;7.17;;;;;;;11.47;54.42;101230.78;5055418;28;20047;-79
2022/04/21 07:15:21;;;;;;;16.07;7.47;;;;;;;11.49;54.94;101222.44;5024119;28;20061;-80
2022/04/21 07:17:47;;;;;;;13.33;7.73;;;;;;;11.66;56.54;101222.88;5030794;28;20061;-78
2022/04/21 07:20:13;;;;;;;14.33;7.33;;;;;;;11.84;56.41;101230.38;5023682;28;20131;-77
2022/04/21 07:22:39;;;;;;;13.07;7.40;;;;;;;11.88;54.84;101234.31;5038939;28;20057;-79
2022/04/21 07:25:08;;;;;;;11.80;7.17;;;;;;;11.96;54.77;101234.13;5023686;28;20037;-80
2022/04/21 07:27:34;;;;;;;11.97;7.47;;;;;;;12.01;56.19;101232.66;5022753;28;20033;-82
2022/04/21 07:30:00;;;;;;;9.40;7.43;;;;;;;12.02;57.42;101242.50;5055559;28;20072;-80
2022/04/21 07:32:25;;;;;;;12.00;7.57;;;;;;;12.05;55.75;101244.78;5023711;28;20068;-79
2022/04/21 07:34:51;;;;;;;11.00;7.10;;;;;;;11.86;55.14;101228.28;5024341;28;20128;-80
2022/04/21 07:37:16;;;;;;;12.00;7.33;;;;;;;11.90;56.88;101243.09;5023198;28;20520;-79
2022/04/21 07:39:42;;;;;;;10.37;7.10;;;;;;;12.09;57.22;101248.72;5024092;28;20496;-80
2022/04/21 07:42:09;;;;;;;11.10;7.30;;;;;;;12.18;56.62;101238.50;5023614;28;20084;-82
2022/04/21 07:44:35;;;;;;;9.43;7.23;;;;;;;12.17;55.32;101240.34;5025539;28;20043;-79
2022/04/21 07:47:01;;;;;;;11.27;7.10;;;;;;;12.37;55.05;101245.75;5023077;28;20037;-79
2022/04/21 07:49:46;;;;;;;10.07;6.83;;;;;;;12.75;55.73;101238.69;5031602;28;20046;-78
2022/04/21 07:55:23;;;;;;;9.67;6.60;;;;;;;12.54;54.82;101253.41;5027089;28;20106;-78
2022/04/21 07:57:49;;;;;;;9.77;6.30;;;;;;;12.42;54.13;101245.94;5027079;28;20048;-79
2022/04/21 08:00:16;;;;;;;9.40;6.57;;;;;;;12.32;54.56;101242.81;5026654;28;20198;-80
2022/04/21 08:02:44;;;;;;;8.30;6.17;;;;;;;12.11;54.72;101247.47;5026954;28;20026;-80
2022/04/21 08:05:12;;;;;;;9.13;6.43;;;;;;;12.02;55.48;101246.03;5027325;28;20116;-79
2022/04/21 08:07:37;;;;;;;9.43;6.40;;;;;;;11.99;55.95;101244.59;5024964;28;20037;-80
2022/04/21 08:10:05;;;;;;;11.90;6.90;;;;;;;12.20;56.04;101242.66;5026722;28;20035;-78
2022/04/21 08:12:48;;;;;;;8.27;6.40;;;;;;;12.31;54.64;101233.84;5038944;28;20073;-78
2022/04/21 08:15:25;;;;;;;10.33;6.47;;;;;;;12.38;54.85;101247.41;5023329;28;20044;-80
2022/04/21 08:17:51;;;;;;;9.83;6.43;;;;;;;12.47;54.74;101246.13;5023903;28;20053;-79
2022/04/21 08:20:16;;;;;;;8.20;6.13;;;;;;;12.60;55.59;101238.97;5023547;28;20033;-79
2022/04/21 08:22:43;;;;;;;10.90;6.23;;;;;;;12.74;57.55;101242.47;5021821;28;21468;-78
2022/04/21 08:33:21;;;;;;;8.93;6.45;;;;;;;12.98;57.11;101238.97;5050597;28;20832;-78
2022/04/21 08:35:48;;;;;;;9.33;6.43;;;;;;;12.96;55.13;101237.53;5022319;28;20033;-83
2022/04/21 08:38:13;;;;;;;10.53;6.20;;;;;;;12.97;56.02;101240.06;5021864;28;22169;-80
2022/04/21 08:40:49;;;;;;;9.63;6.20;;;;;;;13.02;55.42;101246.72;5023359;28;20041;-78
2022/04/21 08:43:15;;;;;;;11.33;6.23;;;;;;;13.08;55.02;101238.53;5022749;28;20124;-78
2022/04/21 08:45:45;;;;;;;10.20;5.97;;;;;;;13.04;54.33;101241.88;5023139;28;21502;-79
2022/04/21 08:48:12;;;;;;;9.03;6.07;;;;;;;13.08;53.44;101240.41;5056354;28;20056;-79
2022/04/21 08:50:38;;;;;;;7.73;5.47;;;;;;;13.03;53.79;101241.06;5041374;28;20049;-79
2022/04/21 08:53:05;;;;;;;8.23;6.23;;;;;;;13.22;55.33;101225.66;5025958;28;20656;-79
2022/04/21 08:55:32;;;;;;;14.27;6.33;;;;;;;13.43;54.16;101229.09;5026223;28;20029;-79
2022/04/21 08:57:57;;;;;;;10.40;6.13;;;;;;;13.37;54.22;101238.97;5025480;28;20025;-80
2022/04/21 09:00:22;;;;;;;9.33;5.73;;;;;;;13.42;52.73;101232.88;5041170;28;20107;-77
2022/04/21 09:02:49;;;;;;;16.50;6.20;;;;;;;13.27;52.41;101238.59;5026163;28;20044;-77
2022/04/21 09:05:15;;;;;;;7.10;6.03;;;;;;;13.09;52.36;101226.56;5025422;28;20519;-82
2022/04/21 09:07:50;;;;;;;7.87;6.20;;;;;;;13.37;54.70;101225.38;5041296;28;20124;-78
2022/04/21 09:10:17;;;;;;;9.40;6.13;;;;;;;13.44;53.32;101223.44;5025782;28;20037;-83
2022/04/21 09:12:55;;;;;;;7.80;5.70;;;;;;;13.48;51.28;101230.09;5025250;28;20461;-79
2022/04/21 09:15:24;;;;;;;9.67;5.60;;;;;;;13.70;52.41;101224.25;5025816;28;20041;-78
2022/04/21 09:17:51;;;;;;;8.33;5.40;;;;;;;13.53;51.12;101220.44;5025391;28;20050;-78
2022/04/21 09:20:20;;;;;;;12.70;6.10;;;;;;;13.71;52.01;101225.06;5025249;28;20032;-81
2022/04/21 09:22:56;;;;;;;10.53;5.30;;;;;;;13.75;51.65;101229.00;5024997;28;20079;-77
2022/04/21 09:25:24;;;;;;;7.97;5.53;;;;;;;13.66;48.92;101225.75;5025052;28;20033;-81
2022/04/21 09:27:50;;;;;;;9.43;5.27;;;;;;;13.90;50.41;101220.50;5025426;28;20120;-77
2022/04/21 09:30:17;;;;;;;8.90;5.17;;;;;;;13.94;48.39;101216.25;5025605;28;20044;-78
2022/04/21 09:32:58;;;;;;;9.03;5.40;;;;;;;13.95;47.24;101210.63;5024460;28;20037;-83
2022/04/21 09:35:29;;;;;;;6.73;4.57;;;;;;;13.93;46.84;101215.44;5025296;28;20029;-79
2022/04/21 09:37:57;;;;;;;13.07;5.10;;;;;;;13.96;46.35;101212.25;5025039;28;20045;-81
2022/04/21 09:40:24;;;;;;;5.07;4.10;;;;;;;13.94;46.38;101210.81;5025265;28;20040;-78
2022/04/21 09:43:01;;;;;;;10.37;4.40;;;;;;;13.95;46.82;101207.88;5025011;28;20045;-79
2022/04/21 09:48:28;;;;;;;5.63;3.77;;;;;;;14.02;45.26;101200.47;5024617;28;20088;-79
2022/04/21 09:51:05;;;;;;;5.60;3.70;;;;;;;14.01;44.13;101196.06;5024902;28;20044;-86
2022/04/21 09:53:44;;;;;;;5.07;3.50;;;;;;;14.02;42.54;101196.94;5024717;28;20724;-78
2022/04/21 09:56:09;;;;;;;7.47;3.93;;;;;;;14.08;44.80;101206.09;5024671;28;20041;-83
2022/04/21 09:58:53;;;;;;;6.20;3.30;;;;;;;14.11;45.26;101195.53;5056535;28;20148;-78
2022/04/21 10:01:19;;;;;;;5.80;3.40;;;;;;;14.10;42.48;101198.50;5025424;28;20052;-82
2022/04/21 10:03:45;;;;;;;5.50;3.17;;;;;;;14.05;41.32;101191.03;5039384;28;20458;-81
2022/04/21 10:06:10;;;;;;;4.93;3.37;;;;;;;14.15;45.18;101194.03;5024566;28;20032;-78
2022/04/21 10:08:40;;;;;;;6.33;3.40;;;;;;;14.13;43.32;101184.41;5024641;28;20425;-81
2022/04/21 10:11:06;;;;;;;5.07;3.20;;;;;;;14.32;43.97;101190.69;5039715;28;20044;-79
2022/04/21 10:13:32;;;;;;;6.63;3.13;;;;;;;14.39;42.99;101172.38;5024233;28;20120;-79
2022/04/21 10:15:58;;;;;;;3.73;3.30;;;;;;;14.53;43.62;101178.47;5024030;28;20526;-79
2022/04/21 10:18:24;;;;;;;3.47;3.10;;;;;;;14.47;40.52;101176.66;5024306;28;20048;-80
2022/04/21 10:20:53;;;;;;;5.90;3.20;;;;;;;14.32;40.27;101183.38;5024360;28;20472;-81
2022/04/21 10:23:28;;;;;;;3.80;3.40;;;;;;;14.30;39.99;101180.00;5023718;28;20195;-83
2022/04/21 10:26:03;;;;;;;4.60;3.00;;;;;;;14.44;42.54;101177.97;5022641;28;20273;-78
2022/04/21 10:28:42;;;;;;;5.47;3.57;;;;;;;14.56;40.95;101171.75;5024854;28;20052;-83
2022/04/21 10:31:28;;;;;;;6.00;3.37;;;;;;;14.47;42.72;101165.75;5020711;28;20044;-82
2022/04/21 10:33:57;;;;;;;4.17;3.30;;;;;;;14.57;41.23;101160.59;5021036;28;20631;-78
2022/04/21 10:36:35;;;;;;;5.67;3.77;;;;;;;14.62;39.90;101158.00;5020135;28;20103;-80
2022/04/21 10:39:25;;;;;;;8.27;3.50;;;;;;;14.77;42.16;101164.97;5020860;28;20159;-78
2022/04/21 10:42:07;;;;;;;6.57;3.20;;;;;;;14.81;43.06;101160.69;5021205;28;20033;-77
2022/04/21 10:44:42;;;;;;;4.90;3.30;;;;;;;14.77;39.95;101149.44;5019586;28;20056;-79
2022/04/21 10:47:36;;;;;;;5.60;3.60;;;;;;;14.88;42.34;101161.47;5020435;28;20391;-79
2022/04/21 10:50:12;;;;;;;7.03;3.50;;;;;;;14.93;41.95;101153.41;5020997;28;20556;-80
2022/04/21 10:58:35;;;;;;;5.90;3.13;;;;;;;15.00;37.97;101148.66;5022107;28;20136;-80
2022/04/21 11:01:31;;;;;;;;;;;;;;;15.20;40.46;101136.59;5038474;28;20076;-83
2022/04/21 11:04:17;;;;;;;5.97;3.30;;;;;;;15.33;42.64;101130.91;5024130;28;19921;-78
2022/04/21 11:06:45;;;;;;;5.30;3.40;;;;;;;15.35;42.17;101134.25;5023665;28;20079;-80
2022/04/21 11:09:48;;;;;;;5.47;3.70;;;;;;;15.51;41.34;101137.31;5023121;28;20033;-78
2022/04/21 11:12:16;;;;;;;4.67;3.60;;;;;;;15.35;38.62;101131.53;5019631;28;20106;-84
2022/04/21 11:14:42;;;;;;;6.10;3.70;;;;;;;15.55;40.42;101138.50;5023396;28;20032;-83
2022/04/21 11:17:08;;;;;;;7.60;3.63;;;;;;;15.65;43.07;101129.72;5023637;28;20057;-80
2022/04/21 11:19:40;;;;;;;5.90;3.80;;;;;;;15.65;40.43;101133.28;5024089;28;20610;-77
2022/04/21 11:22:07;;;;;;;7.40;3.63;;;;;;;15.94;43.45;101121.63;5031730;28;20041;-80
2022/04/21 11:24:55;;;;;;;7.83;3.23;;;;;;;16.18;38.75;101116.94;5055079;28;20484;-80
2022/04/21 11:27:21;;;;;;;5.33;3.10;;;;;;;16.40;38.59;101117.09;5024672;28;20539;-79
2022/04/21 11:29:47;;;;;;;4.80;3.53;;;;;;;16.43;37.75;101115.75;5026863;28;20124;-79
2022/04/21 11:32:16;;;;;;;3.57;3.20;;;;;;;16.63;36.59;101105.22;5058695;28;20051;-78
2022/04/21 11:34:56;;;;;;;4.20;3.30;;;;;;;16.39;34.82;101104.50;5025410;28;20017;-82
2022/04/21 11:37:21;;;;;;;4.43;3.20;;;;;;;16.06;34.69;101099.72;5027298;28;20045;-80
2022/04/21 11:39:46;;;;;;;7.80;3.23;;;;;;;16.58;38.20;101096.91;5059001;28;20053;-77
2022/04/21 11:42:23;;;;;;;4.73;3.40;;;;;;;16.37;33.96;101085.59;5027628;28;20041;-79
2022/04/21 11:44:49;;;;;;;5.93;3.70;;;;;;;16.60;36.42;101083.81;5026994;28;20345;-84
2022/04/21 11:47:19;;;;;;;6.23;3.50;;;;;;;16.87;38.81;101091.38;5027026;28;20047;-82
2022/04/21 11:50:00;;;;;;;5.43;3.43;;;;;;;16.96;36.00;101078.97;5028039;28;20064;-80
2022/04/21 11:52:27;;;;;;;4.77;3.30;;;;;;;17.10;37.20;101068.53;5027272;28;20449;-82
2022/04/21 11:55:03;;;;;;;6.33;3.30;;;;;;;17.33;37.06;101083.94;5026702;28;20040;-78
2022/04/21 11:57:48;;;;;;;4.70;3.07;;;;;;;17.30;34.07;101080.84;5026644;28;20380;-84
2022/04/21 12:00:15;;;;;;;5.93;2.72;;;;;;;17.22;34.20;101079.38;5027296;28;20426;-78
2022/04/21 12:08:14;;;;;;;6.95;3.10;;;;;;;17.61;35.05;101081.28;5026837;28;20055;-79
2022/04/21 12:11:18;;;;;;;6.53;3.20;;;;;;;17.64;36.47;101081.63;5042415;28;20033;-79
2022/04/21 12:13:45;;;;;;;4.63;3.63;;;;;;;17.53;36.24;101064.22;5026228;28;20040;-81
2022/04/21 12:16:35;;;;;;;4.87;3.20;;;;;;;17.55;35.45;101078.47;5026426;28;20152;-80
2022/04/21 12:19:19;;;;;;;3.70;3.13;;;;;;;17.52;35.37;101061.75;5057720;28;20082;-79
2022/04/21 12:22:02;;;;;;;5.88;3.10;;;;;;;17.53;35.54;101072.44;5026414;28;20033;-82
2022/04/21 12:24:34;;;;;;;4.00;3.33;;;;;;;17.25;35.40;101064.38;5033388;28;20037;-78
2022/04/21 12:27:01;;;;;;;6.63;3.10;;;;;;;17.07;36.41;101062.69;5025430;28;20157;-79